Fultonham, OH

8:46 AM EST on January 31, 2015 (GMT -0500)
Zanesville Municipal | Change Station
CLOSE
Current Station
Airport
Location: Zanesville,
Elevation: 899 ft
Nearby Weather Stations
Active Advisory: Winter Storm Watch

Elev 899 ft 39.94 °N, 81.89 °W | Updated 53 minutes ago

Clear
Clear
4 °F
Feels Like 4 °F
N
0
Wind Variable Wind from North

Today
High -- | Low -- °F
--% Chance of Precip.
Yesterday
High -- | Low -- °F
Precip. -- in
7:37 AM 5:46 PM
Waxing Gibbous, 89% visible
Pressure 30.43 in
Visibility 9.0 miles
Clouds Clear
Dew Point 0 °F
Humidity 84%
Rainfall 0.00 in
Snow Depth Not available.
UV 0 out of 12
Pollen .30 out of 12
Air Quality Not available.
Flu Activity Not available.
METAR KZZV 311253Z AUTO 00000KT 9SM CLR M16/M18 A3037 RMK AO2 SLP304 T11561178

More Conditions Fewer Conditions

Pressure 30.43 in
Visibility 9.0 miles
Clouds Clear
Dew Point 0 °F
Humidity 84%
Rainfall 0.00 in
Snow Depth Not available.
UV 0 out of 12
Pollen .30 out of 12
Air Quality Not available.
Flu Activity Not available.
METAR KZZV 311253Z AUTO 00000KT 9SM CLR M16/M18 A3037 RMK AO2 SLP304 T11561178

More Conditions Fewer Conditions

10-Day Weather Forecast

Almanac

Astronomy

Jan. 31, 2015 Rise Set
Actual Time
Civil Twilight
Nautical Twilight
Astronomical Twilight
Moon
Length of Visible Light
Length of Day
Tomorrow will be .
, % of the Moon is Illuminated

Today's Extremes

State Highs State Lows

Community

WunderPhotos

Upload Photos

1,792,048 photos uploaded!

WunderBlogs® & News

Nearby

Air Quality

  Air Quality AQ Index Pollutant
Not available.

Snow Depth

Station Depth Elevation

Earthquake Activity

City Distance Mag. Time & Date
Minimum magnitude displayed is 2.5.

Coastal Water Temperatures

Place Temperature

Nearby Weather Stations